sensor_id;sensor_type;location;lat;lon;timestamp;P1;durP1;ratioP1;P2;durP2;ratioP2
74650;SDS011;63169;46.042;14.592;2023-03-23T00:03:28;3.45;;;1.10;;
74650;SDS011;63169;46.042;14.592;2023-03-23T00:05:56;5.20;;;2.08;;
74650;SDS011;63169;46.042;14.592;2023-03-23T00:08:32;4.78;;;2.47;;
74650;SDS011;63169;46.042;14.592;2023-03-23T00:11:11;5.47;;;1.63;;
74650;SDS011;63169;46.042;14.592;2023-03-23T00:13:45;5.05;;;3.40;;
74650;SDS011;63169;46.042;14.592;2023-03-23T00:16:11;4.80;;;2.58;;
74650;SDS011;63169;46.042;14.592;2023-03-23T00:18:44;4.38;;;2.67;;
74650;SDS011;63169;46.042;14.592;2023-03-23T00:21:09;4.50;;;2.20;;
74650;SDS011;63169;46.042;14.592;2023-03-23T00:23:35;5.03;;;2.22;;
74650;SDS011;63169;46.042;14.592;2023-03-23T00:26:00;5.07;;;2.25;;
74650;SDS011;63169;46.042;14.592;2023-03-23T00:28:26;3.55;;;1.83;;
74650;SDS011;63169;46.042;14.592;2023-03-23T00:30:58;4.72;;;2.80;;
74650;SDS011;63169;46.042;14.592;2023-03-23T00:33:26;3.80;;;1.77;;
74650;SDS011;63169;46.042;14.592;2023-03-23T00:35:53;3.78;;;2.03;;
74650;SDS011;63169;46.042;14.592;2023-03-23T00:38:20;5.55;;;2.60;;
74650;SDS011;63169;46.042;14.592;2023-03-23T00:40:49;4.18;;;2.28;;
74650;SDS011;63169;46.042;14.592;2023-03-23T00:43:15;5.15;;;2.90;;
74650;SDS011;63169;46.042;14.592;2023-03-23T00:45:42;4.88;;;1.77;;
74650;SDS011;63169;46.042;14.592;2023-03-23T00:48:10;5.32;;;2.67;;
74650;SDS011;63169;46.042;14.592;2023-03-23T00:50:37;3.85;;;2.85;;
74650;SDS011;63169;46.042;14.592;2023-03-23T00:53:03;5.38;;;3.40;;
74650;SDS011;63169;46.042;14.592;2023-03-23T00:55:28;4.72;;;2.22;;
74650;SDS011;63169;46.042;14.592;2023-03-23T00:57:55;4.47;;;2.83;;
74650;SDS011;63169;46.042;14.592;2023-03-23T01:00:21;4.47;;;2.53;;
74650;SDS011;63169;46.042;14.592;2023-03-23T01:02:47;5.75;;;3.33;;
74650;SDS011;63169;46.042;14.592;2023-03-23T01:05:12;5.00;;;2.08;;
74650;SDS011;63169;46.042;14.592;2023-03-23T01:07:39;5.70;;;2.13;;
74650;SDS011;63169;46.042;14.592;2023-03-23T01:10:05;4.47;;;2.50;;
74650;SDS011;63169;46.042;14.592;2023-03-23T01:12:31;4.55;;;2.72;;
74650;SDS011;63169;46.042;14.592;2023-03-23T01:14:56;4.97;;;2.65;;
74650;SDS011;63169;46.042;14.592;2023-03-23T01:17:21;7.18;;;3.25;;
74650;SDS011;63169;46.042;14.592;2023-03-23T01:19:47;5.13;;;2.70;;
74650;SDS011;63169;46.042;14.592;2023-03-23T01:22:12;7.82;;;3.13;;
74650;SDS011;63169;46.042;14.592;2023-03-23T01:24:38;6.53;;;3.00;;
74650;SDS011;63169;46.042;14.592;2023-03-23T01:27:03;5.63;;;3.05;;
74650;SDS011;63169;46.042;14.592;2023-03-23T01:29:34;5.43;;;2.72;;
74650;SDS011;63169;46.042;14.592;2023-03-23T01:32:01;4.43;;;2.60;;
74650;SDS011;63169;46.042;14.592;2023-03-23T01:34:26;6.35;;;2.55;;
74650;SDS011;63169;46.042;14.592;2023-03-23T01:36:52;5.30;;;2.05;;
74650;SDS011;63169;46.042;14.592;2023-03-23T01:39:17;5.00;;;2.53;;
74650;SDS011;63169;46.042;14.592;2023-03-23T01:41:43;5.40;;;2.75;;
74650;SDS011;63169;46.042;14.592;2023-03-23T01:46:43;6.13;;;3.55;;
74650;SDS011;63169;46.042;14.592;2023-03-23T01:49:10;4.35;;;2.45;;
74650;SDS011;63169;46.042;14.592;2023-03-23T01:51:40;3.70;;;2.03;;
74650;SDS011;63169;46.042;14.592;2023-03-23T01:54:14;3.92;;;1.73;;
74650;SDS011;63169;46.042;14.592;2023-03-23T01:56:48;4.28;;;2.38;;
74650;SDS011;63169;46.042;14.592;2023-03-23T01:59:19;4.80;;;2.35;;
74650;SDS011;63169;46.042;14.592;2023-03-23T02:01:46;4.35;;;2.25;;
74650;SDS011;63169;46.042;14.592;2023-03-23T02:04:12;4.45;;;2.67;;
74650;SDS011;63169;46.042;14.592;2023-03-23T02:06:39;6.97;;;2.83;;
74650;SDS011;63169;46.042;14.592;2023-03-23T02:09:05;4.60;;;2.75;;
74650;SDS011;63169;46.042;14.592;2023-03-23T02:11:31;3.65;;;2.00;;
74650;SDS011;63169;46.042;14.592;2023-03-23T02:13:57;5.28;;;3.70;;
74650;SDS011;63169;46.042;14.592;2023-03-23T02:16:25;5.97;;;3.83;;
74650;SDS011;63169;46.042;14.592;2023-03-23T02:30:28;7.38;;;3.92;;
74650;SDS011;63169;46.042;14.592;2023-03-23T02:35:58;4.70;;;2.95;;
74650;SDS011;63169;46.042;14.592;2023-03-23T02:38:35;5.57;;;3.40;;
74650;SDS011;63169;46.042;14.592;2023-03-23T02:41:06;5.80;;;2.53;;
74650;SDS011;63169;46.042;14.592;2023-03-23T02:43:33;5.63;;;2.83;;
74650;SDS011;63169;46.042;14.592;2023-03-23T02:46:04;5.65;;;2.67;;
74650;SDS011;63169;46.042;14.592;2023-03-23T02:48:31;5.85;;;3.47;;
74650;SDS011;63169;46.042;14.592;2023-03-23T02:50:58;6.20;;;3.72;;
74650;SDS011;63169;46.042;14.592;2023-03-23T02:53:25;8.82;;;4.47;;
74650;SDS011;63169;46.042;14.592;2023-03-23T02:55:52;8.55;;;4.00;;
74650;SDS011;63169;46.042;14.592;2023-03-23T02:58:18;6.90;;;3.50;;
74650;SDS011;63169;46.042;14.592;2023-03-23T03:00:44;5.85;;;3.25;;
74650;SDS011;63169;46.042;14.592;2023-03-23T03:03:15;4.90;;;2.72;;
74650;SDS011;63169;46.042;14.592;2023-03-23T03:11:06;7.15;;;3.38;;
74650;SDS011;63169;46.042;14.592;2023-03-23T03:13:46;7.55;;;4.32;;
74650;SDS011;63169;46.042;14.592;2023-03-23T03:16:30;8.10;;;3.30;;
74650;SDS011;63169;46.042;14.592;2023-03-23T03:21:29;5.05;;;3.10;;
74650;SDS011;63169;46.042;14.592;2023-03-23T03:23:56;6.05;;;3.58;;
74650;SDS011;63169;46.042;14.592;2023-03-23T03:26:27;8.15;;;3.67;;
74650;SDS011;63169;46.042;14.592;2023-03-23T03:28:54;6.97;;;3.53;;
74650;SDS011;63169;46.042;14.592;2023-03-23T03:31:22;6.38;;;3.85;;
74650;SDS011;63169;46.042;14.592;2023-03-23T03:33:49;6.15;;;3.63;;
74650;SDS011;63169;46.042;14.592;2023-03-23T03:36:20;7.10;;;3.65;;
74650;SDS011;63169;46.042;14.592;2023-03-23T03:38:49;5.80;;;3.50;;
74650;SDS011;63169;46.042;14.592;2023-03-23T03:41:16;6.63;;;3.85;;
74650;SDS011;63169;46.042;14.592;2023-03-23T03:43:42;6.22;;;3.22;;
74650;SDS011;63169;46.042;14.592;2023-03-23T03:46:07;5.57;;;2.90;;
74650;SDS011;63169;46.042;14.592;2023-03-23T03:48:33;6.07;;;3.58;;
74650;SDS011;63169;46.042;14.592;2023-03-23T03:50:59;7.45;;;4.00;;
74650;SDS011;63169;46.042;14.592;2023-03-23T03:53:25;8.35;;;4.05;;
74650;SDS011;63169;46.042;14.592;2023-03-23T03:55:51;10.23;;;4.68;;
74650;SDS011;63169;46.042;14.592;2023-03-23T03:58:21;7.63;;;4.35;;
74650;SDS011;63169;46.042;14.592;2023-03-23T04:03:15;8.25;;;4.25;;
74650;SDS011;63169;46.042;14.592;2023-03-23T04:05:41;5.57;;;3.10;;
74650;SDS011;63169;46.042;14.592;2023-03-23T04:08:09;6.78;;;3.85;;
74650;SDS011;63169;46.042;14.592;2023-03-23T04:10:36;6.05;;;3.05;;
74650;SDS011;63169;46.042;14.592;2023-03-23T04:13:02;7.03;;;3.45;;
74650;SDS011;63169;46.042;14.592;2023-03-23T04:15:29;6.70;;;3.67;;
74650;SDS011;63169;46.042;14.592;2023-03-23T04:17:55;10.93;;;3.70;;
74650;SDS011;63169;46.042;14.592;2023-03-23T04:20:22;7.97;;;4.22;;
74650;SDS011;63169;46.042;14.592;2023-03-23T04:22:48;6.72;;;3.30;;
74650;SDS011;63169;46.042;14.592;2023-03-23T04:25:18;6.32;;;3.22;;
74650;SDS011;63169;46.042;14.592;2023-03-23T04:27:46;6.53;;;3.08;;
74650;SDS011;63169;46.042;14.592;2023-03-23T04:30:18;10.23;;;5.13;;
74650;SDS011;63169;46.042;14.592;2023-03-23T04:32:47;7.53;;;4.18;;
74650;SDS011;63169;46.042;14.592;2023-03-23T04:35:15;6.03;;;3.30;;
74650;SDS011;63169;46.042;14.592;2023-03-23T04:37:42;8.23;;;3.15;;
74650;SDS011;63169;46.042;14.592;2023-03-23T04:40:08;5.20;;;2.88;;
74650;SDS011;63169;46.042;14.592;2023-03-23T04:42:37;6.43;;;3.05;;
74650;SDS011;63169;46.042;14.592;2023-03-23T04:45:04;7.07;;;3.30;;
74650;SDS011;63169;46.042;14.592;2023-03-23T04:47:32;5.03;;;3.55;;
74650;SDS011;63169;46.042;14.592;2023-03-23T04:49:59;6.10;;;3.25;;
74650;SDS011;63169;46.042;14.592;2023-03-23T04:52:26;8.50;;;4.47;;
74650;SDS011;63169;46.042;14.592;2023-03-23T04:54:53;5.88;;;3.53;;
74650;SDS011;63169;46.042;14.592;2023-03-23T04:57:20;8.32;;;3.80;;
74650;SDS011;63169;46.042;14.592;2023-03-23T04:59:47;10.48;;;4.13;;
74650;SDS011;63169;46.042;14.592;2023-03-23T05:02:13;13.15;;;5.38;;
74650;SDS011;63169;46.042;14.592;2023-03-23T05:04:38;12.02;;;7.05;;
74650;SDS011;63169;46.042;14.592;2023-03-23T05:07:06;10.43;;;5.30;;
74650;SDS011;63169;46.042;14.592;2023-03-23T05:09:32;9.18;;;5.22;;
74650;SDS011;63169;46.042;14.592;2023-03-23T05:12:03;7.68;;;4.20;;
74650;SDS011;63169;46.042;14.592;2023-03-23T05:14:29;8.63;;;4.50;;
74650;SDS011;63169;46.042;14.592;2023-03-23T05:16:54;8.50;;;4.13;;
74650;SDS011;63169;46.042;14.592;2023-03-23T05:19:21;14.98;;;5.35;;
74650;SDS011;63169;46.042;14.592;2023-03-23T05:21:46;10.95;;;4.65;;
74650;SDS011;63169;46.042;14.592;2023-03-23T05:24:11;10.48;;;4.28;;
74650;SDS011;63169;46.042;14.592;2023-03-23T05:26:37;7.57;;;4.57;;
74650;SDS011;63169;46.042;14.592;2023-03-23T05:29:02;11.10;;;4.18;;
74650;SDS011;63169;46.042;14.592;2023-03-23T05:31:28;8.98;;;4.47;;
74650;SDS011;63169;46.042;14.592;2023-03-23T05:33:53;5.97;;;3.95;;
74650;SDS011;63169;46.042;14.592;2023-03-23T05:36:19;9.77;;;3.53;;
74650;SDS011;63169;46.042;14.592;2023-03-23T05:38:45;5.03;;;2.78;;
74650;SDS011;63169;46.042;14.592;2023-03-23T05:41:12;13.68;;;3.58;;
74650;SDS011;63169;46.042;14.592;2023-03-23T05:43:38;8.38;;;4.13;;
74650;SDS011;63169;46.042;14.592;2023-03-23T05:46:04;6.38;;;2.65;;
74650;SDS011;63169;46.042;14.592;2023-03-23T05:48:30;9.85;;;2.92;;
74650;SDS011;63169;46.042;14.592;2023-03-23T05:50:55;14.88;;;3.83;;
74650;SDS011;63169;46.042;14.592;2023-03-23T05:53:21;9.88;;;4.30;;
74650;SDS011;63169;46.042;14.592;2023-03-23T05:55:48;10.77;;;4.78;;
74650;SDS011;63169;46.042;14.592;2023-03-23T05:58:13;9.43;;;5.03;;
74650;SDS011;63169;46.042;14.592;2023-03-23T06:00:39;7.93;;;5.57;;
74650;SDS011;63169;46.042;14.592;2023-03-23T06:03:05;11.98;;;5.93;;
74650;SDS011;63169;46.042;14.592;2023-03-23T06:05:31;17.85;;;8.02;;
74650;SDS011;63169;46.042;14.592;2023-03-23T06:07:57;18.05;;;7.68;;
74650;SDS011;63169;46.042;14.592;2023-03-23T06:10:24;13.32;;;7.68;;
74650;SDS011;63169;46.042;14.592;2023-03-23T06:12:49;11.88;;;4.22;;
74650;SDS011;63169;46.042;14.592;2023-03-23T06:15:16;8.68;;;4.78;;
74650;SDS011;63169;46.042;14.592;2023-03-23T06:17:42;15.93;;;7.80;;
74650;SDS011;63169;46.042;14.592;2023-03-23T06:20:08;21.67;;;6.53;;
74650;SDS011;63169;46.042;14.592;2023-03-23T06:22:37;19.98;;;6.63;;
74650;SDS011;63169;46.042;14.592;2023-03-23T06:25:05;20.13;;;6.50;;
74650;SDS011;63169;46.042;14.592;2023-03-23T06:27:31;14.82;;;5.60;;
74650;SDS011;63169;46.042;14.592;2023-03-23T06:35:36;13.90;;;8.00;;
74650;SDS011;63169;46.042;14.592;2023-03-23T06:38:01;20.42;;;10.48;;
74650;SDS011;63169;46.042;14.592;2023-03-23T06:40:27;20.75;;;10.90;;
74650;SDS011;63169;46.042;14.592;2023-03-23T06:42:54;23.38;;;9.80;;
74650;SDS011;63169;46.042;14.592;2023-03-23T06:45:22;19.75;;;9.85;;
74650;SDS011;63169;46.042;14.592;2023-03-23T06:47:47;16.90;;;9.55;;
74650;SDS011;63169;46.042;14.592;2023-03-23T06:50:14;14.77;;;9.95;;
74650;SDS011;63169;46.042;14.592;2023-03-23T06:52:40;18.67;;;10.18;;
74650;SDS011;63169;46.042;14.592;2023-03-23T06:55:06;26.33;;;11.55;;
74650;SDS011;63169;46.042;14.592;2023-03-23T06:57:32;20.67;;;10.20;;
74650;SDS011;63169;46.042;14.592;2023-03-23T06:59:57;17.48;;;10.30;;
74650;SDS011;63169;46.042;14.592;2023-03-23T07:02:23;20.58;;;10.80;;
74650;SDS011;63169;46.042;14.592;2023-03-23T07:04:48;19.55;;;11.57;;
74650;SDS011;63169;46.042;14.592;2023-03-23T07:07:14;16.80;;;11.27;;
74650;SDS011;63169;46.042;14.592;2023-03-23T07:09:43;15.80;;;9.35;;
74650;SDS011;63169;46.042;14.592;2023-03-23T07:12:09;32.88;;;18.50;;
74650;SDS011;63169;46.042;14.592;2023-03-23T07:14:34;26.65;;;17.70;;
74650;SDS011;63169;46.042;14.592;2023-03-23T07:17:00;16.70;;;10.63;;
74650;SDS011;63169;46.042;14.592;2023-03-23T07:19:26;25.33;;;12.35;;
74650;SDS011;63169;46.042;14.592;2023-03-23T07:21:51;43.97;;;16.45;;
74650;SDS011;63169;46.042;14.592;2023-03-23T07:24:16;22.73;;;12.57;;
74650;SDS011;63169;46.042;14.592;2023-03-23T07:26:43;18.48;;;11.27;;
74650;SDS011;63169;46.042;14.592;2023-03-23T07:29:09;24.90;;;11.73;;
74650;SDS011;63169;46.042;14.592;2023-03-23T07:31:34;23.75;;;11.35;;
74650;SDS011;63169;46.042;14.592;2023-03-23T07:34:00;30.40;;;13.43;;
74650;SDS011;63169;46.042;14.592;2023-03-23T07:36:28;22.55;;;12.65;;
74650;SDS011;63169;46.042;14.592;2023-03-23T07:38:53;22.95;;;12.82;;
74650;SDS011;63169;46.042;14.592;2023-03-23T07:41:19;26.45;;;12.98;;
74650;SDS011;63169;46.042;14.592;2023-03-23T07:43:45;22.27;;;13.65;;
74650;SDS011;63169;46.042;14.592;2023-03-23T07:46:11;23.83;;;13.82;;
74650;SDS011;63169;46.042;14.592;2023-03-23T07:48:37;24.35;;;13.82;;
74650;SDS011;63169;46.042;14.592;2023-03-23T07:51:03;22.67;;;13.52;;
74650;SDS011;63169;46.042;14.592;2023-03-23T07:53:30;20.17;;;11.88;;
74650;SDS011;63169;46.042;14.592;2023-03-23T07:55:55;19.25;;;12.38;;
74650;SDS011;63169;46.042;14.592;2023-03-23T07:58:21;17.60;;;10.85;;
74650;SDS011;63169;46.042;14.592;2023-03-23T08:00:46;16.35;;;10.68;;
74650;SDS011;63169;46.042;14.592;2023-03-23T08:03:14;18.48;;;10.77;;
74650;SDS011;63169;46.042;14.592;2023-03-23T08:05:40;19.58;;;11.60;;
74650;SDS011;63169;46.042;14.592;2023-03-23T08:08:07;19.05;;;11.55;;
74650;SDS011;63169;46.042;14.592;2023-03-23T08:10:34;24.83;;;12.43;;
74650;SDS011;63169;46.042;14.592;2023-03-23T08:13:00;18.15;;;11.35;;
74650;SDS011;63169;46.042;14.592;2023-03-23T08:15:25;21.42;;;12.52;;
74650;SDS011;63169;46.042;14.592;2023-03-23T08:17:54;19.65;;;12.70;;
74650;SDS011;63169;46.042;14.592;2023-03-23T08:20:20;18.95;;;11.73;;
74650;SDS011;63169;46.042;14.592;2023-03-23T08:22:51;19.75;;;12.82;;
74650;SDS011;63169;46.042;14.592;2023-03-23T08:25:18;15.73;;;9.73;;
74650;SDS011;63169;46.042;14.592;2023-03-23T08:27:48;17.50;;;10.38;;
74650;SDS011;63169;46.042;14.592;2023-03-23T08:30:16;19.70;;;9.88;;
74650;SDS011;63169;46.042;14.592;2023-03-23T08:32:44;17.27;;;9.35;;
74650;SDS011;63169;46.042;14.592;2023-03-23T08:35:10;15.60;;;9.98;;
74650;SDS011;63169;46.042;14.592;2023-03-23T08:37:36;13.82;;;9.65;;
74650;SDS011;63169;46.042;14.592;2023-03-23T08:40:03;16.60;;;9.75;;
74650;SDS011;63169;46.042;14.592;2023-03-23T08:42:36;16.65;;;10.15;;
74650;SDS011;63169;46.042;14.592;2023-03-23T08:45:03;21.13;;;10.23;;
74650;SDS011;63169;46.042;14.592;2023-03-23T08:47:32;15.45;;;10.70;;
74650;SDS011;63169;46.042;14.592;2023-03-23T08:49:58;14.98;;;9.50;;
74650;SDS011;63169;46.042;14.592;2023-03-23T08:52:24;16.83;;;11.00;;
74650;SDS011;63169;46.042;14.592;2023-03-23T08:54:55;19.77;;;8.90;;
74650;SDS011;63169;46.042;14.592;2023-03-23T08:57:22;16.67;;;9.57;;
74650;SDS011;63169;46.042;14.592;2023-03-23T09:02:13;19.05;;;11.20;;
74650;SDS011;63169;46.042;14.592;2023-03-23T09:04:39;19.83;;;14.73;;
74650;SDS011;63169;46.042;14.592;2023-03-23T09:07:08;13.18;;;8.70;;
74650;SDS011;63169;46.042;14.592;2023-03-23T09:09:35;14.90;;;8.95;;
74650;SDS011;63169;46.042;14.592;2023-03-23T09:12:02;14.00;;;8.85;;
74650;SDS011;63169;46.042;14.592;2023-03-23T09:14:28;14.93;;;10.05;;
74650;SDS011;63169;46.042;14.592;2023-03-23T09:16:56;16.20;;;9.45;;
74650;SDS011;63169;46.042;14.592;2023-03-23T09:19:22;14.85;;;8.93;;
74650;SDS011;63169;46.042;14.592;2023-03-23T09:21:47;15.68;;;10.05;;
74650;SDS011;63169;46.042;14.592;2023-03-23T09:24:13;15.10;;;10.25;;
74650;SDS011;63169;46.042;14.592;2023-03-23T09:26:39;12.88;;;9.20;;
74650;SDS011;63169;46.042;14.592;2023-03-23T09:29:04;13.18;;;8.93;;
74650;SDS011;63169;46.042;14.592;2023-03-23T09:31:30;14.05;;;9.00;;
74650;SDS011;63169;46.042;14.592;2023-03-23T09:36:22;17.95;;;9.18;;
74650;SDS011;63169;46.042;14.592;2023-03-23T09:38:48;19.88;;;10.13;;
74650;SDS011;63169;46.042;14.592;2023-03-23T09:41:26;17.20;;;9.07;;
74650;SDS011;63169;46.042;14.592;2023-03-23T09:49:18;20.50;;;10.10;;
74650;SDS011;63169;46.042;14.592;2023-03-23T09:51:52;16.13;;;9.98;;
74650;SDS011;63169;46.042;14.592;2023-03-23T09:54:29;19.35;;;10.30;;
74650;SDS011;63169;46.042;14.592;2023-03-23T09:56:59;16.95;;;10.52;;
74650;SDS011;63169;46.042;14.592;2023-03-23T09:59:40;14.98;;;10.40;;
74650;SDS011;63169;46.042;14.592;2023-03-23T10:02:11;14.27;;;9.85;;
74650;SDS011;63169;46.042;14.592;2023-03-23T10:07:37;23.48;;;10.95;;
74650;SDS011;63169;46.042;14.592;2023-03-23T10:09:57;20.67;;;8.98;;
74650;SDS011;63169;46.042;14.592;2023-03-23T10:12:47;19.58;;;9.45;;
74650;SDS011;63169;46.042;14.592;2023-03-23T10:15:20;20.13;;;10.60;;
74650;SDS011;63169;46.042;14.592;2023-03-23T10:23:40;19.13;;;11.05;;
74650;SDS011;63169;46.042;14.592;2023-03-23T10:31:58;16.08;;;9.55;;
74650;SDS011;63169;46.042;14.592;2023-03-23T10:42:27;14.20;;;8.60;;
74650;SDS011;63169;46.042;14.592;2023-03-23T10:44:56;19.00;;;10.50;;
74650;SDS011;63169;46.042;14.592;2023-03-23T10:47:24;17.10;;;9.00;;
74650;SDS011;63169;46.042;14.592;2023-03-23T10:55:07;12.65;;;8.70;;
74650;SDS011;63169;46.042;14.592;2023-03-23T10:57:38;12.90;;;9.50;;
74650;SDS011;63169;46.042;14.592;2023-03-23T11:02:35;14.85;;;9.25;;
74650;SDS011;63169;46.042;14.592;2023-03-23T11:05:04;11.00;;;5.55;;
74650;SDS011;63169;46.042;14.592;2023-03-23T11:07:39;74.18;;;9.23;;
74650;SDS011;63169;46.042;14.592;2023-03-23T11:10:15;11.68;;;4.10;;
74650;SDS011;63169;46.042;14.592;2023-03-23T11:12:46;8.90;;;4.38;;
74650;SDS011;63169;46.042;14.592;2023-03-23T11:15:20;6.47;;;3.28;;
74650;SDS011;63169;46.042;14.592;2023-03-23T11:17:54;17.35;;;4.38;;
74650;SDS011;63169;46.042;14.592;2023-03-23T11:20:21;15.75;;;5.07;;
74650;SDS011;63169;46.042;14.592;2023-03-23T11:22:47;6.00;;;3.47;;
74650;SDS011;63169;46.042;14.592;2023-03-23T11:27:38;22.90;;;4.93;;
74650;SDS011;63169;46.042;14.592;2023-03-23T11:30:09;18.67;;;5.47;;
74650;SDS011;63169;46.042;14.592;2023-03-23T11:32:36;13.38;;;5.25;;
74650;SDS011;63169;46.042;14.592;2023-03-23T11:35:06;18.85;;;4.20;;
74650;SDS011;63169;46.042;14.592;2023-03-23T11:37:42;15.00;;;4.47;;
74650;SDS011;63169;46.042;14.592;2023-03-23T11:42:46;7.82;;;3.90;;
74650;SDS011;63169;46.042;14.592;2023-03-23T11:53:53;6.93;;;3.38;;
74650;SDS011;63169;46.042;14.592;2023-03-23T11:56:29;27.60;;;7.47;;
74650;SDS011;63169;46.042;14.592;2023-03-23T11:59:02;8.73;;;2.67;;
74650;SDS011;63169;46.042;14.592;2023-03-23T12:23:38;4.25;;;2.78;;
74650;SDS011;63169;46.042;14.592;2023-03-23T12:29:23;5.70;;;2.38;;
74650;SDS011;63169;46.042;14.592;2023-03-23T12:34:38;7.05;;;2.97;;
74650;SDS011;63169;46.042;14.592;2023-03-23T12:44:54;5.65;;;2.55;;
74650;SDS011;63169;46.042;14.592;2023-03-23T12:50:16;6.40;;;2.75;;
74650;SDS011;63169;46.042;14.592;2023-03-23T12:58:07;11.18;;;3.40;;
74650;SDS011;63169;46.042;14.592;2023-03-23T13:06:05;6.25;;;2.15;;
74650;SDS011;63169;46.042;14.592;2023-03-23T13:08:38;4.22;;;1.85;;
74650;SDS011;63169;46.042;14.592;2023-03-23T13:11:15;16.10;;;3.65;;
74650;SDS011;63169;46.042;14.592;2023-03-23T13:13:48;8.02;;;2.58;;
74650;SDS011;63169;46.042;14.592;2023-03-23T13:16:20;4.90;;;2.85;;
74650;SDS011;63169;46.042;14.592;2023-03-23T13:18:57;8.60;;;2.22;;
74650;SDS011;63169;46.042;14.592;2023-03-23T13:24:34;7.25;;;1.95;;
74650;SDS011;63169;46.042;14.592;2023-03-23T13:27:04;4.45;;;3.45;;
74650;SDS011;63169;46.042;14.592;2023-03-23T13:29:30;15.02;;;3.60;;
74650;SDS011;63169;46.042;14.592;2023-03-23T13:32:15;5.65;;;3.00;;
74650;SDS011;63169;46.042;14.592;2023-03-23T13:37:10;9.45;;;3.05;;
74650;SDS011;63169;46.042;14.592;2023-03-23T13:42:24;5.63;;;2.45;;
74650;SDS011;63169;46.042;14.592;2023-03-23T13:49:51;10.35;;;3.10;;
74650;SDS011;63169;46.042;14.592;2023-03-23T14:05:43;4.88;;;2.22;;
74650;SDS011;63169;46.042;14.592;2023-03-23T14:13:37;14.82;;;2.50;;
74650;SDS011;63169;46.042;14.592;2023-03-23T14:16:14;2.63;;;1.55;;
74650;SDS011;63169;46.042;14.592;2023-03-23T14:18:41;4.20;;;2.42;;
74650;SDS011;63169;46.042;14.592;2023-03-23T14:21:21;18.15;;;3.55;;
74650;SDS011;63169;46.042;14.592;2023-03-23T14:23:52;6.80;;;1.83;;
74650;SDS011;63169;46.042;14.592;2023-03-23T14:26:20;19.70;;;3.15;;
74650;SDS011;63169;46.042;14.592;2023-03-23T14:28:50;7.32;;;2.10;;
74650;SDS011;63169;46.042;14.592;2023-03-23T14:33:52;19.92;;;2.55;;
74650;SDS011;63169;46.042;14.592;2023-03-23T14:36:22;9.13;;;3.10;;
74650;SDS011;63169;46.042;14.592;2023-03-23T14:41:22;8.45;;;2.65;;
74650;SDS011;63169;46.042;14.592;2023-03-23T14:43:47;8.88;;;3.10;;
74650;SDS011;63169;46.042;14.592;2023-03-23T14:48:38;4.40;;;1.70;;
74650;SDS011;63169;46.042;14.592;2023-03-23T14:51:04;4.97;;;2.05;;
74650;SDS011;63169;46.042;14.592;2023-03-23T14:53:36;7.90;;;2.22;;
74650;SDS011;63169;46.042;14.592;2023-03-23T14:56:09;5.32;;;2.15;;
74650;SDS011;63169;46.042;14.592;2023-03-23T14:58:36;21.00;;;3.45;;
74650;SDS011;63169;46.042;14.592;2023-03-23T15:03:53;13.75;;;3.50;;
74650;SDS011;63169;46.042;14.592;2023-03-23T15:06:22;4.28;;;1.88;;
74650;SDS011;63169;46.042;14.592;2023-03-23T15:08:50;13.35;;;2.72;;
74650;SDS011;63169;46.042;14.592;2023-03-23T15:11:23;8.30;;;2.53;;
74650;SDS011;63169;46.042;14.592;2023-03-23T15:13:53;5.40;;;1.63;;
74650;SDS011;63169;46.042;14.592;2023-03-23T15:16:25;4.55;;;1.92;;
74650;SDS011;63169;46.042;14.592;2023-03-23T15:21:29;6.85;;;2.17;;
74650;SDS011;63169;46.042;14.592;2023-03-23T15:23:56;5.90;;;2.58;;
74650;SDS011;63169;46.042;14.592;2023-03-23T15:31:38;6.20;;;2.38;;
74650;SDS011;63169;46.042;14.592;2023-03-23T15:34:15;4.57;;;2.10;;
74650;SDS011;63169;46.042;14.592;2023-03-23T15:37:05;3.42;;;2.05;;
74650;SDS011;63169;46.042;14.592;2023-03-23T15:39:46;7.95;;;1.50;;
74650;SDS011;63169;46.042;14.592;2023-03-23T15:42:31;8.32;;;1.65;;
74650;SDS011;63169;46.042;14.592;2023-03-23T15:52:46;4.82;;;1.88;;
74650;SDS011;63169;46.042;14.592;2023-03-23T15:55:20;6.32;;;2.63;;
74650;SDS011;63169;46.042;14.592;2023-03-23T15:57:49;5.20;;;2.53;;
74650;SDS011;63169;46.042;14.592;2023-03-23T16:00:15;5.65;;;2.28;;
74650;SDS011;63169;46.042;14.592;2023-03-23T16:02:42;9.80;;;2.08;;
74650;SDS011;63169;46.042;14.592;2023-03-23T16:05:13;6.15;;;1.58;;
74650;SDS011;63169;46.042;14.592;2023-03-23T16:07:39;7.00;;;1.67;;
74650;SDS011;63169;46.042;14.592;2023-03-23T16:10:05;8.15;;;2.90;;
74650;SDS011;63169;46.042;14.592;2023-03-23T16:12:50;4.85;;;1.67;;
74650;SDS011;63169;46.042;14.592;2023-03-23T16:17:42;7.53;;;2.15;;
74650;SDS011;63169;46.042;14.592;2023-03-23T16:20:12;7.10;;;2.28;;
74650;SDS011;63169;46.042;14.592;2023-03-23T16:22:42;4.93;;;1.58;;
74650;SDS011;63169;46.042;14.592;2023-03-23T16:25:07;4.28;;;1.95;;
74650;SDS011;63169;46.042;14.592;2023-03-23T16:27:34;5.70;;;1.40;;
74650;SDS011;63169;46.042;14.592;2023-03-23T16:29:59;4.55;;;1.83;;
74650;SDS011;63169;46.042;14.592;2023-03-23T16:32:27;6.95;;;1.55;;
74650;SDS011;63169;46.042;14.592;2023-03-23T16:34:52;12.48;;;2.13;;
74650;SDS011;63169;46.042;14.592;2023-03-23T16:37:18;7.82;;;2.63;;
74650;SDS011;63169;46.042;14.592;2023-03-23T16:39:43;13.05;;;2.40;;
74650;SDS011;63169;46.042;14.592;2023-03-23T16:42:09;5.50;;;1.40;;
74650;SDS011;63169;46.042;14.592;2023-03-23T16:44:35;3.90;;;1.67;;
74650;SDS011;63169;46.042;14.592;2023-03-23T16:47:00;6.95;;;2.35;;
74650;SDS011;63169;46.042;14.592;2023-03-23T16:49:25;5.13;;;2.00;;
74650;SDS011;63169;46.042;14.592;2023-03-23T16:51:51;11.98;;;2.20;;
74650;SDS011;63169;46.042;14.592;2023-03-23T16:54:16;7.38;;;2.20;;
74650;SDS011;63169;46.042;14.592;2023-03-23T16:56:42;6.68;;;2.15;;
74650;SDS011;63169;46.042;14.592;2023-03-23T16:59:11;6.65;;;1.98;;
74650;SDS011;63169;46.042;14.592;2023-03-23T17:01:39;7.95;;;3.90;;
74650;SDS011;63169;46.042;14.592;2023-03-23T17:06:30;4.60;;;1.98;;
74650;SDS011;63169;46.042;14.592;2023-03-23T17:08:56;4.13;;;2.20;;
74650;SDS011;63169;46.042;14.592;2023-03-23T17:11:21;8.85;;;2.63;;
74650;SDS011;63169;46.042;14.592;2023-03-23T17:13:47;7.68;;;2.08;;
74650;SDS011;63169;46.042;14.592;2023-03-23T17:16:12;7.60;;;2.40;;
74650;SDS011;63169;46.042;14.592;2023-03-23T17:18:37;9.57;;;3.08;;
74650;SDS011;63169;46.042;14.592;2023-03-23T17:21:03;6.40;;;3.97;;
74650;SDS011;63169;46.042;14.592;2023-03-23T17:23:28;18.00;;;7.03;;
74650;SDS011;63169;46.042;14.592;2023-03-23T17:25:54;11.18;;;4.35;;
74650;SDS011;63169;46.042;14.592;2023-03-23T17:28:20;10.82;;;3.53;;
74650;SDS011;63169;46.042;14.592;2023-03-23T17:30:45;7.60;;;3.55;;
74650;SDS011;63169;46.042;14.592;2023-03-23T17:33:11;9.43;;;3.00;;
74650;SDS011;63169;46.042;14.592;2023-03-23T17:35:37;5.63;;;3.55;;
74650;SDS011;63169;46.042;14.592;2023-03-23T17:38:02;8.50;;;2.53;;
74650;SDS011;63169;46.042;14.592;2023-03-23T17:40:28;7.35;;;3.83;;
74650;SDS011;63169;46.042;14.592;2023-03-23T17:42:53;8.98;;;3.03;;
74650;SDS011;63169;46.042;14.592;2023-03-23T17:45:19;9.02;;;2.90;;
74650;SDS011;63169;46.042;14.592;2023-03-23T17:47:47;12.18;;;3.67;;
74650;SDS011;63169;46.042;14.592;2023-03-23T17:50:13;8.02;;;3.92;;
74650;SDS011;63169;46.042;14.592;2023-03-23T17:52:39;8.20;;;4.50;;